Time;durP1;ratioP1;P1;durP2;ratioP2;P2;SDS_P1;SDS_P2;PMS_P1;PMS_P2;Temp;Humidity;BMP_temperature;BMP_pressure;BME280_temperature;BME280_humidity;BME280_pressure;Samples;Min_cycle;Max_cycle;Signal;HPM_P1;HPM_P2
2022/11/16 00:00:24;;;;;;;11.65;9.95;;;;;;;10.46;100.00;99815.28;1027932;28;20947;-81
2022/11/16 00:01:08;;;;;;;10.02;9.07;;;;;;;10.50;100.00;99820.94;1035218;28;20785;-81
2022/11/16 00:01:39;;;;;;;10.93;9.88;;;;;;;10.53;100.00;99821.25;1034167;28;20392;-81
2022/11/16 00:02:12;;;;;;;10.63;9.63;;;;;;;10.50;100.00;99815.59;1035554;28;20300;-81
2022/11/16 00:02:43;;;;;;;11.95;9.07;;;;;;;10.43;100.00;99818.41;1029248;28;20314;-81
2022/11/16 00:03:17;;;;;;;10.68;9.68;;;;;;;10.54;100.00;99811.41;1027144;28;20321;-81
2022/11/16 00:03:50;;;;;;;9.93;9.00;;;;;;;10.55;100.00;99815.69;1024593;28;20310;-80
2022/11/16 00:04:22;;;;;;;10.10;8.93;;;;;;;10.53;100.00;99817.78;1028450;28;20379;-81
2022/11/16 00:04:53;;;;;;;9.52;8.63;;;;;;;10.50;100.00;99811.09;1034054;28;20818;-80
2022/11/16 00:05:25;;;;;;;10.15;9.15;;;;;;;10.50;100.00;99812.94;1031727;28;20328;-80
2022/11/16 00:06:01;;;;;;;10.02;9.02;;;;;;;10.56;100.00;99803.97;1031471;28;20304;-81
2022/11/16 00:06:32;;;;;;;10.25;9.25;;;;;;;10.49;100.00;99808.66;1031423;28;20313;-81
2022/11/16 00:07:05;;;;;;;10.02;9.13;;;;;;;10.47;100.00;99810.75;1027861;28;20454;-81
2022/11/16 00:07:36;;;;;;;11.95;9.90;;;;;;;10.50;100.00;99811.09;1033645;28;21080;-80
2022/11/16 00:08:08;;;;;;;9.98;8.90;;;;;;;10.51;100.00;99806.56;1039545;28;20296;-81
2022/11/16 00:08:43;;;;;;;10.63;9.52;;;;;;;10.50;100.00;99810.28;1037266;28;20728;-81
2022/11/16 00:09:25;;;;;;;8.75;7.93;;;;;;;10.59;100.00;99805.34;1034113;28;20301;-80
2022/11/16 00:09:57;;;;;;;9.70;8.80;;;;;;;10.57;100.00;99810.91;1031323;28;20353;-80
2022/11/16 00:10:29;;;;;;;9.48;8.68;;;;;;;10.58;100.00;99806.41;1033222;28;20303;-80
2022/11/16 00:11:15;;;;;;;9.10;8.23;;;;;;;10.59;100.00;99808.81;1033734;28;20440;-80
2022/11/16 00:11:52;;;;;;;9.73;8.68;;;;;;;10.56;100.00;99803.19;1031258;28;20386;-80
2022/11/16 00:12:24;;;;;;;10.98;8.90;;;;;;;10.52;100.00;99808.19;1028319;28;20481;-80
2022/11/16 00:12:55;;;;;;;10.30;9.30;;;;;;;10.51;100.00;99806.56;1034078;28;20700;-81
2022/11/16 00:13:27;;;;;;;10.27;8.93;;;;;;;10.55;100.00;99807.69;1036550;28;20387;-80
2022/11/16 00:13:58;;;;;;;10.68;9.52;;;;;;;10.45;100.00;99804.88;1039646;28;20299;-80
2022/11/16 00:14:33;;;;;;;11.02;9.93;;;;;;;10.49;100.00;99811.31;1039386;28;20653;-80
2022/11/16 00:15:08;;;;;;;11.43;9.57;;;;;;;10.42;100.00;99813.34;1036213;28;20336;-80
2022/11/16 00:15:39;;;;;;;9.93;8.98;;;;;;;10.50;100.00;99810.28;1033526;28;20387;-80
2022/11/16 00:16:14;;;;;;;10.13;9.13;;;;;;;10.49;100.00;99808.66;1032623;28;20460;-80
2022/11/16 00:16:45;;;;;;;10.02;8.60;;;;;;;10.53;100.00;99804.47;1030849;28;20384;-80
2022/11/16 00:17:17;;;;;;;9.45;8.45;;;;;;;10.56;100.00;99803.97;1027054;28;20295;-80
2022/11/16 00:17:48;;;;;;;12.32;9.65;;;;;;;10.58;100.00;99807.22;1030775;28;20297;-80
2022/11/16 00:18:20;;;;;;;12.70;9.13;;;;;;;10.58;100.00;99806.41;1027608;28;20332;-80
2022/11/16 00:18:56;;;;;;;11.48;10.20;;;;;;;10.51;100.00;99812.69;1027991;28;20292;-80
2022/11/16 00:19:28;;;;;;;9.38;8.45;;;;;;;10.53;100.00;99810.59;1025624;28;20414;-80
2022/11/16 00:19:59;;;;;;;11.18;10.02;;;;;;;10.56;100.00;99803.97;1032397;28;20307;-80
2022/11/16 00:20:31;;;;;;;10.90;9.48;;;;;;;10.58;100.00;99806.41;1031706;28;20312;-80
2022/11/16 00:21:04;;;;;;;10.63;9.43;;;;;;;10.57;100.00;99804.78;1034739;28;20288;-80
2022/11/16 00:21:35;;;;;;;9.68;8.63;;;;;;;10.55;100.00;99801.56;1032837;28;20324;-80
2022/11/16 00:22:07;;;;;;;10.85;9.30;;;;;;;10.49;100.00;99803.34;1034604;28;20876;-80
2022/11/16 00:22:38;;;;;;;10.45;9.35;;;;;;;10.54;100.00;99806.06;1035163;28;20316;-80
2022/11/16 00:23:10;;;;;;;9.60;8.70;;;;;;;10.60;100.00;99810.44;1029833;28;20300;-80
2022/11/16 00:23:41;;;;;;;9.63;8.50;;;;;;;10.58;100.00;99807.22;1031527;28;20819;-80
2022/11/16 00:24:17;;;;;;;10.38;9.23;;;;;;;10.52;100.00;99797.53;1035343;28;20825;-80
2022/11/16 00:24:48;;;;;;;10.27;9.15;;;;;;;10.59;100.00;99808.81;1036397;28;20352;-80
2022/11/16 00:25:20;;;;;;;12.25;9.45;;;;;;;10.53;100.00;99807.13;1040665;28;20383;-80
2022/11/16 00:25:52;;;;;;;11.35;9.63;;;;;;;10.54;100.00;99806.06;1036675;28;20300;-80
2022/11/16 00:26:24;;;;;;;11.20;10.05;;;;;;;10.56;100.00;99796.00;1035281;28;20395;-80
2022/11/16 00:26:56;;;;;;;10.45;9.48;;;;;;;10.54;100.00;99798.09;1031766;28;20428;-80
2022/11/16 00:27:27;;;;;;;12.32;11.15;;;;;;;10.46;100.00;99796.63;1035944;28;20776;-81
2022/11/16 00:27:59;;;;;;;9.77;8.82;;;;;;;10.45;100.00;99802.22;1038520;28;20304;-80
2022/11/16 00:28:31;;;;;;;10.50;9.45;;;;;;;10.52;100.00;99802.84;1035938;28;20331;-80
2022/11/16 00:29:03;;;;;;;10.25;9.25;;;;;;;10.52;100.00;99792.19;1037949;28;20296;-80
2022/11/16 00:29:34;;;;;;;12.20;10.82;;;;;;;10.55;100.00;99797.03;1028191;28;20380;-80
2022/11/16 00:30:06;;;;;;;11.18;10.07;;;;;;;10.58;100.00;99796.56;1028725;28;20405;-80
2022/11/16 00:30:37;;;;;;;10.45;9.35;;;;;;;10.55;100.00;99801.56;1028284;28;20310;-80
2022/11/16 00:31:09;;;;;;;11.32;10.23;;;;;;;10.50;100.00;99794.31;1031565;28;20333;-80
2022/11/16 00:31:41;;;;;;;10.75;9.70;;;;;;;10.56;100.00;99798.66;1031382;28;20364;-80
2022/11/16 00:32:12;;;;;;;9.95;9.05;;;;;;;10.59;100.00;99797.38;1027529;28;20297;-80
2022/11/16 00:32:46;;;;;;;10.35;9.30;;;;;;;10.58;100.00;99796.56;1025334;28;20343;-80
2022/11/16 00:33:18;;;;;;;11.00;9.90;;;;;;;10.61;100.00;99800.59;1024575;28;20307;-80
2022/11/16 00:33:50;;;;;;;12.32;9.63;;;;;;;10.58;100.00;99795.75;1028533;28;20676;-80
2022/11/16 00:34:22;;;;;;;10.45;9.45;;;;;;;10.56;100.00;99798.66;1027937;28;20447;-80
2022/11/16 00:34:54;;;;;;;10.77;9.57;;;;;;;10.57;100.00;99802.13;1027316;28;20301;-80
2022/11/16 00:35:25;;;;;;;11.07;10.07;;;;;;;10.50;100.00;99799.63;1035196;28;20301;-81
2022/11/16 00:36:00;;;;;;;10.85;8.95;;;;;;;10.60;100.00;99793.66;1029018;28;20302;-80
2022/11/16 00:36:31;;;;;;;10.52;9.18;;;;;;;10.63;100.00;99793.16;1027996;28;20373;-80
2022/11/16 00:37:02;;;;;;;11.85;10.77;;;;;;;10.61;100.00;99795.25;1027368;28;20337;-80
2022/11/16 00:37:34;;;;;;;11.65;9.80;;;;;;;10.61;100.00;99790.75;1021544;28;20348;-81
2022/11/16 00:38:06;;;;;;;11.27;9.40;;;;;;;10.53;100.00;99791.16;1022619;28;20446;-80
2022/11/16 00:38:40;;;;;;;11.00;10.00;;;;;;;10.56;100.00;99793.31;1023617;28;20345;-81
2022/11/16 00:39:13;;;;;;;10.43;9.38;;;;;;;10.53;100.00;99789.28;1029418;28;20427;-80
2022/11/16 00:39:44;;;;;;;11.27;10.10;;;;;;;10.61;100.00;99798.72;1027360;28;20304;-80
2022/11/16 00:40:16;;;;;;;12.50;10.18;;;;;;;10.58;100.00;99791.22;1024845;28;20311;-80
2022/11/16 00:40:48;;;;;;;10.38;9.38;;;;;;;10.61;100.00;99793.41;1022734;28;21001;-80
2022/11/16 00:41:20;;;;;;;13.23;11.70;;;;;;;10.64;100.00;99790.25;1023864;28;20859;-81
2022/11/16 00:41:51;;;;;;;11.35;10.15;;;;;;;10.54;100.00;99790.09;1028378;28;20381;-80
2022/11/16 00:42:23;;;;;;;11.20;10.10;;;;;;;10.50;100.00;99792.44;1025721;28;20310;-80
2022/11/16 00:42:54;;;;;;;10.50;9.60;;;;;;;10.49;100.00;99787.38;1029779;28;20302;-80
2022/11/16 00:43:26;;;;;;;11.85;9.93;;;;;;;10.50;100.00;99788.97;1028635;28;20302;-81
2022/11/16 00:43:58;;;;;;;13.07;9.45;;;;;;;10.48;100.00;99791.06;1021498;28;20303;-81
2022/11/16 00:44:29;;;;;;;11.50;10.40;;;;;;;10.52;100.00;99792.19;1031828;28;20740;-81
2022/11/16 00:45:01;;;;;;;14.57;9.65;;;;;;;10.58;100.00;99791.22;1027439;28;20294;-80
2022/11/16 00:45:32;;;;;;;10.45;9.45;;;;;;;10.52;100.00;99789.53;1031815;28;20625;-80
2022/11/16 00:46:04;;;;;;;11.25;10.20;;;;;;;10.52;100.00;99782.34;1032509;28;20341;-81
2022/11/16 00:46:36;;;;;;;11.93;10.73;;;;;;;10.55;100.00;99791.72;1030777;28;20316;-80
2022/11/16 00:47:08;;;;;;;10.13;9.10;;;;;;;10.53;100.00;99788.50;1026575;28;20887;-81
2022/11/16 00:47:39;;;;;;;25.00;11.55;;;;;;;10.55;100.00;99786.38;1031966;28;20364;-80
2022/11/16 00:48:11;;;;;;;11.77;9.95;;;;;;;10.53;100.00;99785.81;1030833;28;20399;-80
2022/11/16 00:48:43;;;;;;;10.63;9.20;;;;;;;10.55;100.00;99791.72;1030698;28;20297;-80
2022/11/16 00:49:15;;;;;;;11.25;10.15;;;;;;;10.50;100.00;99789.78;1029599;28;20699;-80
2022/11/16 00:49:46;;;;;;;12.25;10.50;;;;;;;10.55;100.00;99791.72;1030079;28;20337;-80
2022/11/16 00:50:18;;;;;;;11.95;10.50;;;;;;;10.56;100.00;99793.31;1027239;28;20316;-80
2022/11/16 00:50:49;;;;;;;11.63;10.43;;;;;;;10.61;100.00;99785.41;1023648;28;20303;-81
2022/11/16 00:51:21;;;;;;;11.20;10.15;;;;;;;10.61;100.00;99785.41;1025497;28;20386;-80
2022/11/16 00:51:53;;;;;;;12.05;10.10;;;;;;;10.58;100.00;99785.91;1022010;28;20457;-80
2022/11/16 00:52:25;;;;;;;12.75;10.98;;;;;;;10.63;100.00;99782.50;1027011;28;20305;-80
2022/11/16 00:52:57;;;;;;;11.30;9.15;;;;;;;10.66;100.00;99787.34;1023441;28;20961;-81
2022/11/16 00:53:31;;;;;;;12.88;11.40;;;;;;;10.64;100.00;99787.59;1023783;28;20420;-81
2022/11/16 00:54:03;;;;;;;11.82;10.68;;;;;;;10.64;100.00;99795.59;1026002;28;20301;-80
2022/11/16 00:54:37;;;;;;;11.43;10.32;;;;;;;10.58;100.00;99790.41;1026782;28;20867;-80
2022/11/16 00:55:09;;;;;;;10.43;9.32;;;;;;;10.65;100.00;99791.88;1028437;28;20302;-80
2022/11/16 00:55:42;;;;;;;12.00;10.48;;;;;;;10.61;100.00;99789.94;1032338;28;20302;-80
2022/11/16 00:56:14;;;;;;;11.90;10.73;;;;;;;10.64;100.00;99784.94;1026238;28;20317;-80
2022/11/16 00:56:47;;;;;;;13.05;10.38;;;;;;;10.62;100.00;99791.53;1035130;28;20395;-80
2022/11/16 00:57:19;;;;;;;10.98;9.88;;;;;;;10.58;100.00;99791.22;1029008;28;20420;-81
2022/11/16 00:57:50;;;;;;;16.17;10.55;;;;;;;10.54;100.00;99784.78;1030749;28;20305;-81
2022/11/16 00:58:24;;;;;;;11.75;10.55;;;;;;;10.55;100.00;99786.38;1030731;28;20309;-80
2022/11/16 00:59:02;;;;;;;10.70;9.75;;;;;;;10.58;100.00;99787.75;1023184;28;20314;-80
2022/11/16 00:59:33;;;;;;;13.48;10.60;;;;;;;10.57;100.00;99784.28;1027176;28;20298;-80
2022/11/16 01:00:06;;;;;;;11.90;10.70;;;;;;;10.63;100.00;99787.84;1034611;28;20459;-82
2022/11/16 01:00:39;;;;;;;12.57;11.27;;;;;;;10.58;100.00;99785.09;1030717;28;20392;-81
2022/11/16 01:01:11;;;;;;;11.25;9.55;;;;;;;10.59;100.00;99782.19;1028318;28;20372;-81
2022/11/16 01:01:43;;;;;;;12.43;11.13;;;;;;;10.64;100.00;99790.25;1029593;28;20308;-81
2022/11/16 01:02:15;;;;;;;13.77;10.85;;;;;;;10.65;100.00;99791.06;1026381;28;20306;-81
2022/11/16 01:02:46;;;;;;;12.25;11.05;;;;;;;10.61;100.00;99785.41;1027021;28;20384;-80
2022/11/16 01:03:18;;;;;;;11.77;10.23;;;;;;;10.64;100.00;99784.94;1028255;28;20316;-81
2022/11/16 01:03:49;;;;;;;13.10;10.40;;;;;;;10.65;100.00;99786.53;1030282;28;20349;-81
2022/11/16 01:04:22;;;;;;;12.93;11.57;;;;;;;10.65;100.00;99781.22;1024198;28;20305;-80
2022/11/16 01:04:54;;;;;;;14.68;11.70;;;;;;;10.59;100.00;99787.50;1025764;28;20369;-81
2022/11/16 01:05:25;;;;;;;12.35;11.15;;;;;;;10.54;100.00;99790.09;1028450;28;20310;-81
2022/11/16 01:06:05;;;;;;;11.93;10.82;;;;;;;10.58;100.00;99782.44;1031538;28;20301;-80
2022/11/16 01:06:36;;;;;;;11.60;10.50;;;;;;;10.52;100.00;99777.03;1027034;28;20403;-81
2022/11/16 01:07:08;;;;;;;13.88;10.98;;;;;;;10.60;100.00;99772.34;1022782;28;20326;-81
2022/11/16 01:07:40;;;;;;;12.70;11.40;;;;;;;10.54;100.00;99784.78;1025197;28;20813;-80
2022/11/16 01:08:12;;;;;;;12.35;11.13;;;;;;;10.54;100.00;99776.78;1031132;28;20316;-81
2022/11/16 01:08:44;;;;;;;15.75;13.32;;;;;;;10.55;100.00;99775.75;1027870;28;20309;-81
2022/11/16 01:09:16;;;;;;;11.70;10.48;;;;;;;10.51;100.00;99777.28;1023765;28;20302;-81
2022/11/16 01:09:50;;;;;;;11.75;10.55;;;;;;;10.47;100.00;99773.50;1020904;29;20787;-81
2022/11/16 01:10:24;;;;;;;12.88;10.10;;;;;;;10.54;100.00;99779.44;1029308;28;20561;-81
2022/11/16 01:12:07;;;;;;;12.57;11.38;;;;;;;10.52;100.00;99773.56;1026971;28;20320;-81
2022/11/16 01:12:37;;;;;;;13.32;9.48;;;;;;;10.59;100.00;99776.06;1033591;28;20445;-81
2022/11/16 01:13:09;;;;;;;13.75;10.68;;;;;;;10.53;100.00;99775.19;1030540;28;20332;-81
2022/11/16 01:13:41;;;;;;;12.93;10.13;;;;;;;10.64;100.00;99776.94;1027337;28;20654;-81
2022/11/16 01:14:12;;;;;;;11.85;10.65;;;;;;;10.55;100.00;99781.06;1028069;28;21043;-81
2022/11/16 01:14:46;;;;;;;12.07;9.65;;;;;;;10.53;100.00;99775.97;1032543;28;20305;-81
2022/11/16 01:15:21;;;;;;;12.07;9.98;;;;;;;10.64;100.00;99773.47;1035938;28;20379;-81
2022/11/16 01:15:53;;;;;;;12.05;10.75;;;;;;;10.59;100.00;99774.19;1041817;28;20304;-81
2022/11/16 01:16:25;;;;;;;11.88;10.60;;;;;;;10.59;100.00;99776.06;1043540;28;20413;-81
2022/11/16 01:16:56;;;;;;;13.75;11.43;;;;;;;10.58;100.00;99775.25;1039587;28;20345;-81
2022/11/16 01:17:28;;;;;;;12.43;10.80;;;;;;;10.56;100.00;99774.69;1035702;28;21007;-81
2022/11/16 01:17:59;;;;;;;12.07;10.82;;;;;;;10.57;100.00;99773.63;1039349;28;20288;-82
2022/11/16 01:18:31;;;;;;;15.32;11.43;;;;;;;10.53;100.00;99775.97;1030764;28;20810;-81
2022/11/16 01:19:03;;;;;;;11.68;10.48;;;;;;;10.55;100.00;99770.41;1030295;28;22325;-82
2022/11/16 01:19:36;;;;;;;10.75;9.70;;;;;;;10.63;100.00;99767.34;1026849;28;20313;-82
2022/11/16 01:20:12;;;;;;;14.35;10.40;;;;;;;10.62;100.00;99765.72;1029089;28;20302;-82
2022/11/16 01:20:44;;;;;;;13.68;10.55;;;;;;;10.63;100.00;99775.31;1027966;28;20302;-82
2022/11/16 01:21:16;;;;;;;13.40;10.93;;;;;;;10.59;100.00;99774.19;1032943;28;20431;-82
2022/11/16 01:21:47;;;;;;;12.15;10.85;;;;;;;10.60;100.00;99767.81;1035257;28;20304;-82
2022/11/16 01:22:19;;;;;;;14.45;11.07;;;;;;;10.52;100.00;99765.56;1031524;28;20698;-81
2022/11/16 01:22:51;;;;;;;13.55;12.15;;;;;;;10.57;100.00;99768.31;1030767;28;20376;-81
2022/11/16 01:23:22;;;;;;;13.88;10.95;;;;;;;10.53;100.00;99772.50;1022855;28;20290;-82
2022/11/16 01:23:55;;;;;;;11.95;10.50;;;;;;;10.49;100.00;99766.06;1023406;28;20299;-81
2022/11/16 01:24:27;;;;;;;12.40;10.05;;;;;;;10.49;100.00;99766.06;1024021;28;20310;-82
2022/11/16 01:24:59;;;;;;;12.07;10.68;;;;;;;10.52;100.00;99771.72;1023551;28;20362;-81
2022/11/16 01:25:31;;;;;;;11.70;10.48;;;;;;;10.57;100.00;99770.97;1026929;28;20906;-82
2022/11/16 01:26:02;;;;;;;12.43;11.15;;;;;;;10.58;100.00;99763.78;1027462;28;20349;-82
2022/11/16 01:26:38;;;;;;;13.50;10.93;;;;;;;10.63;100.00;99762.00;1032448;28;20806;-82
2022/11/16 01:27:09;;;;;;;11.93;10.73;;;;;;;10.55;100.00;99767.75;1031236;28;20392;-82
2022/11/16 01:27:43;;;;;;;12.73;10.10;;;;;;;10.60;100.00;99765.16;1032251;28;20432;-82
2022/11/16 01:28:21;;;;;;;12.80;11.10;;;;;;;10.58;100.00;99769.94;1032824;28;20354;-81
2022/11/16 01:28:54;;;;;;;15.70;10.80;;;;;;;10.60;100.00;99761.69;1031057;28;20305;-81
2022/11/16 01:29:27;;;;;;;11.68;10.38;;;;;;;10.58;100.00;99766.47;1028458;28;20302;-82
2022/11/16 01:30:03;;;;;;;12.77;10.63;;;;;;;10.59;100.00;99770.72;1027882;28;20662;-81
2022/11/16 01:30:37;;;;;;;11.50;10.13;;;;;;;10.62;100.00;99763.06;1026769;28;21074;-81
2022/11/16 01:31:12;;;;;;;12.45;10.35;;;;;;;10.51;100.00;99763.97;1025052;28;20688;-82
2022/11/16 01:31:44;;;;;;;13.48;11.15;;;;;;;10.53;100.00;99761.88;1031007;28;20795;-82
2022/11/16 01:32:16;;;;;;;10.82;9.73;;;;;;;10.52;100.00;99760.25;1028349;28;20317;-82
2022/11/16 01:32:48;;;;;;;11.23;10.05;;;;;;;10.58;100.00;99764.59;1026711;28;20302;-81
2022/11/16 01:33:20;;;;;;;13.25;11.32;;;;;;;10.58;100.00;99759.28;1026971;28;20314;-81
2022/11/16 01:33:53;;;;;;;13.27;11.20;;;;;;;10.58;100.00;99764.59;1027713;28;20375;-81
2022/11/16 01:34:27;;;;;;;11.95;10.52;;;;;;;10.59;100.00;99758.22;1031752;28;20301;-81
2022/11/16 01:35:06;;;;;;;12.73;11.43;;;;;;;10.65;100.00;99754.59;1031540;28;20731;-82
2022/11/16 01:35:42;;;;;;;12.65;11.27;;;;;;;10.55;100.00;99754.44;1026727;28;20367;-82
2022/11/16 01:36:14;;;;;;;13.32;11.30;;;;;;;10.52;100.00;99757.59;1027239;28;20309;-82
2022/11/16 01:36:46;;;;;;;14.45;10.82;;;;;;;10.53;100.00;99756.53;1024842;28;20305;-82
2022/11/16 01:37:19;;;;;;;14.52;12.77;;;;;;;10.48;100.00;99754.59;1022825;28;20393;-82
2022/11/16 01:37:50;;;;;;;13.68;11.48;;;;;;;10.48;100.00;99761.78;1026649;28;20290;-81
2022/11/16 01:38:22;;;;;;;11.95;10.13;;;;;;;10.55;100.00;99754.44;1027098;28;20400;-82
2022/11/16 01:39:00;;;;;;;13.52;12.05;;;;;;;10.55;100.00;99754.44;1033485;28;20309;-82
2022/11/16 01:39:36;;;;;;;12.57;11.25;;;;;;;10.50;100.00;99760.50;1030942;28;20309;-82
2022/11/16 01:40:09;;;;;;;12.88;11.57;;;;;;;10.47;100.00;99754.84;1026514;28;20823;-82
2022/11/16 01:40:42;;;;;;;13.40;11.00;;;;;;;10.52;100.00;99752.25;1026379;28;20395;-82
2022/11/16 01:41:16;;;;;;;12.38;11.00;;;;;;;10.54;100.00;99758.16;1023137;28;20850;-82
2022/11/16 01:41:52;;;;;;;12.77;11.43;;;;;;;10.52;100.00;99760.25;1026806;28;20310;-82
2022/11/16 01:42:29;;;;;;;11.35;10.10;;;;;;;10.61;100.00;99753.47;1031072;28;20384;-82
2022/11/16 01:43:13;;;;;;;13.07;11.68;;;;;;;10.62;100.00;99755.06;1033352;28;20825;-82
2022/11/16 01:44:13;;;;;;;12.20;10.55;;;;;;;10.59;100.00;99752.09;1030596;28;20858;-82
2022/11/16 01:45:16;;;;;;;10.93;9.40;;;;;;;10.54;100.00;99747.50;1024964;28;20673;-83
2022/11/16 01:45:47;;;;;;;10.73;9.63;;;;;;;10.55;100.00;99749.13;1035145;28;20671;-82
2022/11/16 01:46:19;;;;;;;13.60;11.40;;;;;;;10.50;100.00;99749.84;1031787;28;20383;-82
2022/11/16 01:46:50;;;;;;;11.35;10.23;;;;;;;10.50;100.00;99749.03;1030749;28;20293;-82
2022/11/16 01:47:22;;;;;;;13.25;10.85;;;;;;;10.58;100.00;99747.81;1027312;28;20309;-82
2022/11/16 01:47:55;;;;;;;11.27;10.13;;;;;;;10.59;100.00;99750.25;1027047;28;20312;-82
2022/11/16 01:48:31;;;;;;;13.43;10.70;;;;;;;10.59;100.00;99747.56;1031842;28;20304;-83
2022/11/16 01:49:11;;;;;;;11.63;10.43;;;;;;;10.56;100.00;99752.59;1035880;28;20314;-82
2022/11/16 01:49:49;;;;;;;14.45;11.25;;;;;;;10.55;100.00;99746.44;1030633;28;20324;-82
2022/11/16 01:50:26;;;;;;;17.85;11.55;;;;;;;10.54;100.00;99747.50;1030698;28;20463;-82
2022/11/16 01:50:57;;;;;;;12.77;11.45;;;;;;;10.61;100.00;99744.66;1026337;28;20399;-82
2022/11/16 01:51:32;;;;;;;11.88;10.57;;;;;;;10.61;100.00;99748.13;1026473;28;20301;-83
2022/11/16 01:52:07;;;;;;;14.35;11.85;;;;;;;10.58;100.00;99745.97;1025270;28;20303;-82
2022/11/16 01:52:45;;;;;;;11.63;10.40;;;;;;;10.58;100.00;99737.97;1026706;28;20306;-82
2022/11/16 01:53:17;;;;;;;12.38;10.15;;;;;;;10.53;100.00;99737.91;1023018;29;20299;-82
2022/11/16 01:53:56;;;;;;;13.40;11.57;;;;;;;10.50;100.00;99747.19;1026971;28;20796;-82
2022/11/16 01:54:28;;;;;;;13.45;11.60;;;;;;;10.53;100.00;99746.69;1026689;28;20686;-82
2022/11/16 01:55:03;;;;;;;13.65;10.88;;;;;;;10.46;100.00;99745.25;1028922;28;20766;-82
2022/11/16 01:55:47;;;;;;;13.07;11.15;;;;;;;10.57;100.00;99739.03;1030762;28;20740;-82
2022/11/16 01:56:24;;;;;;;11.75;10.45;;;;;;;10.50;100.00;99738.38;1030753;28;20434;-82
2022/11/16 01:57:14;;;;;;;12.13;10.80;;;;;;;10.49;100.00;99742.09;1026415;28;20803;-81
2022/11/16 01:57:54;;;;;;;12.73;10.85;;;;;;;10.57;100.00;99746.19;1027194;28;20325;-82
2022/11/16 01:58:26;;;;;;;11.65;10.43;;;;;;;10.53;100.00;99743.22;1026702;28;20368;-82
2022/11/16 01:59:04;;;;;;;11.15;9.95;;;;;;;10.58;100.00;99737.16;1021166;28;20801;-82
2022/11/16 01:59:37;;;;;;;12.60;10.32;;;;;;;10.53;100.00;99735.25;1022604;28;20299;-81
2022/11/16 02:00:11;;;;;;;14.85;11.50;;;;;;;10.53;100.00;99737.91;1024491;28;20363;-82
2022/11/16 02:00:53;;;;;;;13.77;10.30;;;;;;;10.60;100.00;99741.19;1028113;28;20437;-82
2022/11/16 02:01:51;;;;;;;12.68;10.13;;;;;;;10.60;100.00;99730.53;1032429;28;20826;-82
2022/11/16 02:02:25;;;;;;;15.63;10.38;;;;;;;10.57;100.00;99740.88;1034761;28;20374;-81
2022/11/16 02:02:56;;;;;;;11.10;9.65;;;;;;;10.58;100.00;99735.31;1031197;28;20308;-82
2022/11/16 02:03:40;;;;;;;14.40;10.40;;;;;;;10.57;100.00;99736.34;1030939;28;20899;-82
2022/11/16 02:04:12;;;;;;;14.95;10.20;;;;;;;10.55;100.00;99735.00;1028759;28;20301;-82
2022/11/16 02:04:50;;;;;;;14.23;11.52;;;;;;;10.51;100.00;99729.34;1028393;28;20354;-82
2022/11/16 02:05:56;;;;;;;12.60;11.18;;;;;;;10.48;100.00;99735.16;1027581;28;20364;-82
2022/11/16 02:06:30;;;;;;;12.38;11.23;;;;;;;10.51;100.00;99737.34;1032988;28;20376;-82
2022/11/16 02:09:52;;;;;;;13.50;11.63;;;;;;;10.51;100.00;99732.00;1038340;28;20315;-82
2022/11/16 02:09:57;;;;;;;14.40;10.20;;;;;;;10.54;100.00;99734.19;1033318;28;20308;-83
2022/11/16 02:10:40;;;;;;;14.15;11.02;;;;;;;10.53;100.00;99738.72;1030901;28;20323;-82
2022/11/16 02:11:29;;;;;;;12.13;10.77;;;;;;;10.48;100.00;99727.19;1029396;28;20306;-82
2022/11/16 02:12:11;;;;;;;11.80;10.50;;;;;;;10.45;100.00;99738.31;1026018;28;20309;-82
2022/11/16 02:12:58;;;;;;;10.57;9.43;;;;;;;10.48;100.00;99732.50;1022515;28;20314;-82
2022/11/16 02:13:48;;;;;;;13.98;12.07;;;;;;;10.50;100.00;99731.22;1032437;28;20294;-82
2022/11/16 02:14:42;;;;;;;12.75;11.25;;;;;;;10.50;100.00;99741.84;1029444;28;20304;-82
2022/11/16 02:15:26;;;;;;;13.55;10.30;;;;;;;10.62;100.00;99732.97;1027583;28;20310;-82
2022/11/16 02:16:32;;;;;;;15.73;10.10;;;;;;;10.57;100.00;99731.03;1026870;28;20313;-83
2022/11/16 02:17:43;;;;;;;10.95;9.27;;;;;;;10.55;100.00;99738.47;1030896;28;20850;-82
2022/11/16 02:18:37;;;;;;;10.88;9.77;;;;;;;10.60;100.00;99733.22;1034827;28;20305;-82
2022/11/16 02:19:09;;;;;;;11.43;9.68;;;;;;;10.52;100.00;99746.94;1030748;28;20333;-82
2022/11/16 02:19:58;;;;;;;12.27;10.48;;;;;;;10.47;100.00;99753.00;1030934;28;20722;-82
2022/11/16 02:20:57;;;;;;;11.65;10.45;;;;;;;10.54;100.00;99755.50;1034264;28;20356;-83
2022/11/16 02:21:55;;;;;;;11.27;9.95;;;;;;;10.64;100.00;99742.31;1032992;28;20301;-82
2022/11/16 02:23:00;;;;;;;12.48;9.77;;;;;;;10.61;100.00;99739.34;1030941;28;20351;-82
2022/11/16 02:23:50;;;;;;;13.85;10.90;;;;;;;10.51;100.00;99743.47;1035779;28;20304;-81
2022/11/16 02:24:46;;;;;;;11.85;10.00;;;;;;;10.50;100.00;99741.84;1034288;28;20309;-81
2022/11/16 02:25:48;;;;;;;12.45;9.68;;;;;;;10.45;100.00;99748.97;1034788;28;20633;-81
2022/11/16 02:26:48;;;;;;;13.40;11.02;;;;;;;10.41;100.00;99753.16;1038431;28;20390;-81
2022/11/16 02:27:32;;;;;;;13.48;10.55;;;;;;;10.42;100.00;99752.09;1038009;28;20306;-81
2022/11/16 02:28:31;;;;;;;14.70;11.30;;;;;;;10.63;100.00;99740.72;1034925;28;20436;-81
2022/11/16 02:29:19;;;;;;;11.68;10.02;;;;;;;10.57;100.00;99746.19;1036334;28;20332;-80
2022/11/16 02:29:53;;;;;;;16.10;10.63;;;;;;;10.55;100.00;99738.47;1026887;28;20330;-80
2022/11/16 02:30:24;;;;;;;14.48;10.35;;;;;;;10.62;100.00;99728.44;1030513;28;20363;-80
2022/11/16 02:30:59;;;;;;;12.45;9.52;;;;;;;10.54;100.00;99731.53;1022144;28;20973;-80
2022/11/16 02:31:36;;;;;;;10.32;8.93;;;;;;;10.60;100.00;99746.53;1029609;28;20308;-80
2022/11/16 02:32:30;;;;;;;13.25;10.20;;;;;;;10.55;100.00;99737.66;1031002;28;20312;-80
2022/11/16 02:33:08;;;;;;;11.45;9.45;;;;;;;10.55;100.00;99743.78;1035148;28;20818;-80
2022/11/16 02:33:40;;;;;;;9.40;8.48;;;;;;;10.55;100.00;99738.47;1039980;28;20378;-80
2022/11/16 02:34:15;;;;;;;10.52;9.63;;;;;;;10.59;100.00;99738.78;1039986;28;20730;-81
2022/11/16 02:34:56;;;;;;;11.10;8.98;;;;;;;10.64;100.00;99730.88;1031652;28;20294;-80
2022/11/16 02:35:32;;;;;;;10.90;9.18;;;;;;;10.63;100.00;99723.94;1032278;28;20309;-80
2022/11/16 02:36:10;;;;;;;10.05;9.07;;;;;;;10.63;100.00;99730.06;1031797;28;20039;-80
2022/11/16 02:36:43;;;;;;;10.05;8.43;;;;;;;10.57;100.00;99725.72;1031693;28;20070;-80
2022/11/16 02:37:19;;;;;;;11.27;10.15;;;;;;;10.52;100.00;99722.97;1033883;28;20312;-81
2022/11/16 02:37:57;;;;;;;14.20;9.90;;;;;;;10.48;100.00;99722.66;1028597;28;20749;-80
2022/11/16 02:38:32;;;;;;;11.88;9.40;;;;;;;10.56;100.00;99725.94;1022934;28;20308;-81
2022/11/16 02:39:08;;;;;;;10.52;9.40;;;;;;;10.48;100.00;99727.19;1027515;28;20645;-80
2022/11/16 02:39:40;;;;;;;11.88;8.88;;;;;;;10.50;100.00;99720.56;1027686;28;20766;-80
2022/11/16 02:40:14;;;;;;;11.57;9.75;;;;;;;10.57;100.00;99730.22;1028920;28;20753;-80
2022/11/16 02:40:49;;;;;;;11.68;9.35;;;;;;;10.50;100.00;99720.56;1029042;28;20665;-80
2022/11/16 02:41:27;;;;;;;13.00;8.50;;;;;;;10.58;100.00;99722.00;1025502;28;20307;-80
2022/11/16 02:42:00;;;;;;;12.32;9.48;;;;;;;10.60;100.00;99724.41;1027831;28;20317;-80
2022/11/16 02:42:43;;;;;;;15.32;10.45;;;;;;;10.55;100.00;99727.81;1025911;28;20307;-80
2022/11/16 02:43:25;;;;;;;10.57;9.35;;;;;;;10.54;100.00;99720.88;1023374;28;20303;-80
2022/11/16 02:44:06;;;;;;;11.80;9.43;;;;;;;10.56;100.00;99721.44;1026185;28;20700;-81
2022/11/16 02:44:42;;;;;;;10.70;9.25;;;;;;;10.61;100.00;99724.16;1025054;28;20310;-80
2022/11/16 02:45:19;;;;;;;9.23;8.07;;;;;;;10.55;100.00;99716.34;1027624;28;20136;-80
2022/11/16 02:45:54;;;;;;;10.43;8.80;;;;;;;10.55;100.00;99721.69;1028340;28;20309;-80